sensor_id;sensor_type;location;lat;lon;timestamp;P1;durP1;ratioP1;P2;durP2;ratioP2
14516;SDS011;7344;50.864;4.362;2023-09-18T00:02:11;11.68;;;6.25;;
14516;SDS011;7344;50.864;4.362;2023-09-18T00:04:37;6.75;;;5.97;;
14516;SDS011;7344;50.864;4.362;2023-09-18T00:07:02;7.20;;;6.30;;
14516;SDS011;7344;50.864;4.362;2023-09-18T00:09:28;7.95;;;6.20;;
14516;SDS011;7344;50.864;4.362;2023-09-18T00:11:53;6.97;;;6.28;;
14516;SDS011;7344;50.864;4.362;2023-09-18T00:14:19;7.30;;;6.60;;
14516;SDS011;7344;50.864;4.362;2023-09-18T00:16:45;9.27;;;7.40;;
14516;SDS011;7344;50.864;4.362;2023-09-18T00:19:10;6.90;;;6.35;;
14516;SDS011;7344;50.864;4.362;2023-09-18T00:21:36;8.52;;;6.20;;
14516;SDS011;7344;50.864;4.362;2023-09-18T00:24:02;6.50;;;5.90;;
14516;SDS011;7344;50.864;4.362;2023-09-18T00:26:28;6.93;;;6.32;;
14516;SDS011;7344;50.864;4.362;2023-09-18T00:28:54;8.05;;;6.65;;
14516;SDS011;7344;50.864;4.362;2023-09-18T00:31:19;7.93;;;6.57;;
14516;SDS011;7344;50.864;4.362;2023-09-18T00:33:45;7.95;;;6.40;;
14516;SDS011;7344;50.864;4.362;2023-09-18T00:36:11;7.13;;;6.20;;
14516;SDS011;7344;50.864;4.362;2023-09-18T00:38:37;8.40;;;6.80;;
14516;SDS011;7344;50.864;4.362;2023-09-18T00:41:02;8.82;;;6.32;;
14516;SDS011;7344;50.864;4.362;2023-09-18T00:43:28;8.98;;;6.90;;
14516;SDS011;7344;50.864;4.362;2023-09-18T00:45:53;12.00;;;7.13;;
14516;SDS011;7344;50.864;4.362;2023-09-18T00:48:19;9.32;;;7.10;;
14516;SDS011;7344;50.864;4.362;2023-09-18T00:50:45;7.75;;;6.82;;
14516;SDS011;7344;50.864;4.362;2023-09-18T00:53:13;10.38;;;7.32;;
14516;SDS011;7344;50.864;4.362;2023-09-18T00:55:41;8.27;;;7.43;;
14516;SDS011;7344;50.864;4.362;2023-09-18T00:58:07;8.30;;;6.95;;
14516;SDS011;7344;50.864;4.362;2023-09-18T01:00:33;8.23;;;6.97;;
14516;SDS011;7344;50.864;4.362;2023-09-18T01:03:00;8.77;;;7.30;;
14516;SDS011;7344;50.864;4.362;2023-09-18T01:05:27;6.93;;;6.32;;
14516;SDS011;7344;50.864;4.362;2023-09-18T01:07:52;9.27;;;6.70;;
14516;SDS011;7344;50.864;4.362;2023-09-18T01:10:18;7.93;;;6.90;;
14516;SDS011;7344;50.864;4.362;2023-09-18T01:12:55;10.48;;;7.65;;
14516;SDS011;7344;50.864;4.362;2023-09-18T01:15:32;8.57;;;7.75;;
14516;SDS011;7344;50.864;4.362;2023-09-18T01:18:06;9.18;;;7.40;;
14516;SDS011;7344;50.864;4.362;2023-09-18T01:20:33;10.75;;;7.63;;
14516;SDS011;7344;50.864;4.362;2023-09-18T01:22:59;9.82;;;8.18;;
14516;SDS011;7344;50.864;4.362;2023-09-18T01:25:25;10.40;;;7.80;;
14516;SDS011;7344;50.864;4.362;2023-09-18T01:27:50;10.38;;;8.18;;
14516;SDS011;7344;50.864;4.362;2023-09-18T01:30:17;9.10;;;7.90;;
14516;SDS011;7344;50.864;4.362;2023-09-18T01:32:43;8.75;;;7.65;;
14516;SDS011;7344;50.864;4.362;2023-09-18T01:35:11;7.63;;;6.75;;
14516;SDS011;7344;50.864;4.362;2023-09-18T01:37:38;7.78;;;7.00;;
14516;SDS011;7344;50.864;4.362;2023-09-18T01:40:05;7.75;;;6.97;;
14516;SDS011;7344;50.864;4.362;2023-09-18T01:42:32;7.78;;;7.03;;
14516;SDS011;7344;50.864;4.362;2023-09-18T01:44:59;7.90;;;6.80;;
14516;SDS011;7344;50.864;4.362;2023-09-18T01:47:25;7.55;;;6.90;;
14516;SDS011;7344;50.864;4.362;2023-09-18T01:49:53;6.78;;;6.28;;
14516;SDS011;7344;50.864;4.362;2023-09-18T01:52:19;7.63;;;6.97;;
14516;SDS011;7344;50.864;4.362;2023-09-18T01:54:45;6.85;;;6.25;;
14516;SDS011;7344;50.864;4.362;2023-09-18T01:57:11;7.40;;;5.97;;
14516;SDS011;7344;50.864;4.362;2023-09-18T01:59:37;6.78;;;5.95;;
14516;SDS011;7344;50.864;4.362;2023-09-18T02:02:04;6.40;;;5.78;;
14516;SDS011;7344;50.864;4.362;2023-09-18T02:04:32;6.57;;;5.85;;
14516;SDS011;7344;50.864;4.362;2023-09-18T02:06:58;7.15;;;6.45;;
14516;SDS011;7344;50.864;4.362;2023-09-18T02:09:23;6.55;;;5.90;;
14516;SDS011;7344;50.864;4.362;2023-09-18T02:11:49;6.63;;;6.03;;
14516;SDS011;7344;50.864;4.362;2023-09-18T02:14:14;8.40;;;6.45;;
14516;SDS011;7344;50.864;4.362;2023-09-18T02:16:41;8.30;;;6.13;;
14516;SDS011;7344;50.864;4.362;2023-09-18T02:19:08;7.45;;;6.43;;
14516;SDS011;7344;50.864;4.362;2023-09-18T02:21:34;8.27;;;6.55;;
14516;SDS011;7344;50.864;4.362;2023-09-18T02:24:01;9.52;;;6.68;;
14516;SDS011;7344;50.864;4.362;2023-09-18T02:26:27;7.47;;;6.43;;
14516;SDS011;7344;50.864;4.362;2023-09-18T02:28:53;6.30;;;5.78;;
14516;SDS011;7344;50.864;4.362;2023-09-18T02:31:19;6.60;;;6.00;;
14516;SDS011;7344;50.864;4.362;2023-09-18T02:33:48;8.57;;;6.50;;
14516;SDS011;7344;50.864;4.362;2023-09-18T02:36:13;7.00;;;6.20;;
14516;SDS011;7344;50.864;4.362;2023-09-18T02:38:40;6.63;;;6.03;;
14516;SDS011;7344;50.864;4.362;2023-09-18T02:41:05;8.48;;;7.10;;
14516;SDS011;7344;50.864;4.362;2023-09-18T02:43:31;10.38;;;5.97;;
14516;SDS011;7344;50.864;4.362;2023-09-18T02:45:56;6.57;;;5.95;;
14516;SDS011;7344;50.864;4.362;2023-09-18T02:48:22;7.40;;;6.40;;
14516;SDS011;7344;50.864;4.362;2023-09-18T02:50:48;7.13;;;5.53;;
14516;SDS011;7344;50.864;4.362;2023-09-18T02:53:18;7.72;;;6.40;;
14516;SDS011;7344;50.864;4.362;2023-09-18T02:55:48;7.25;;;6.20;;
14516;SDS011;7344;50.864;4.362;2023-09-18T02:58:15;7.13;;;5.45;;
14516;SDS011;7344;50.864;4.362;2023-09-18T03:00:50;5.10;;;4.60;;
14516;SDS011;7344;50.864;4.362;2023-09-18T03:03:16;3.80;;;3.50;;
14516;SDS011;7344;50.864;4.362;2023-09-18T03:05:42;4.15;;;3.72;;
14516;SDS011;7344;50.864;4.362;2023-09-18T03:08:09;3.50;;;3.20;;
14516;SDS011;7344;50.864;4.362;2023-09-18T03:10:36;7.60;;;4.15;;
14516;SDS011;7344;50.864;4.362;2023-09-18T03:13:04;4.10;;;3.80;;
14516;SDS011;7344;50.864;4.362;2023-09-18T03:15:31;5.50;;;3.15;;
14516;SDS011;7344;50.864;4.362;2023-09-18T03:17:57;5.85;;;2.80;;
14516;SDS011;7344;50.864;4.362;2023-09-18T03:20:26;3.88;;;3.03;;
14516;SDS011;7344;50.864;4.362;2023-09-18T03:22:54;4.22;;;2.60;;
14516;SDS011;7344;50.864;4.362;2023-09-18T03:25:23;2.88;;;2.65;;
14516;SDS011;7344;50.864;4.362;2023-09-18T03:27:50;2.67;;;2.05;;
14516;SDS011;7344;50.864;4.362;2023-09-18T03:30:21;2.30;;;2.20;;
14516;SDS011;7344;50.864;4.362;2023-09-18T03:32:51;3.50;;;2.00;;
14516;SDS011;7344;50.864;4.362;2023-09-18T03:35:18;1.95;;;1.50;;
14516;SDS011;7344;50.864;4.362;2023-09-18T03:37:50;1.75;;;1.65;;
14516;SDS011;7344;50.864;4.362;2023-09-18T03:40:19;1.83;;;1.73;;
14516;SDS011;7344;50.864;4.362;2023-09-18T03:42:45;1.98;;;1.80;;
14516;SDS011;7344;50.864;4.362;2023-09-18T03:45:11;4.07;;;2.50;;
14516;SDS011;7344;50.864;4.362;2023-09-18T03:47:38;3.47;;;2.75;;
14516;SDS011;7344;50.864;4.362;2023-09-18T03:50:08;3.95;;;2.90;;
14516;SDS011;7344;50.864;4.362;2023-09-18T03:52:34;4.85;;;3.40;;
14516;SDS011;7344;50.864;4.362;2023-09-18T03:55:00;5.55;;;3.95;;
14516;SDS011;7344;50.864;4.362;2023-09-18T03:57:26;6.03;;;3.80;;
14516;SDS011;7344;50.864;4.362;2023-09-18T03:59:51;6.03;;;3.45;;
14516;SDS011;7344;50.864;4.362;2023-09-18T04:02:17;5.57;;;3.55;;
14516;SDS011;7344;50.864;4.362;2023-09-18T04:04:43;5.63;;;3.20;;
14516;SDS011;7344;50.864;4.362;2023-09-18T04:07:08;7.28;;;3.53;;
14516;SDS011;7344;50.864;4.362;2023-09-18T04:09:35;6.75;;;3.22;;
14516;SDS011;7344;50.864;4.362;2023-09-18T04:12:01;5.70;;;3.70;;
14516;SDS011;7344;50.864;4.362;2023-09-18T04:14:27;5.05;;;3.60;;
14516;SDS011;7344;50.864;4.362;2023-09-18T04:16:53;4.30;;;3.83;;
14516;SDS011;7344;50.864;4.362;2023-09-18T04:19:18;3.22;;;2.92;;
14516;SDS011;7344;50.864;4.362;2023-09-18T04:21:44;3.55;;;3.20;;
14516;SDS011;7344;50.864;4.362;2023-09-18T04:24:09;5.32;;;3.45;;
14516;SDS011;7344;50.864;4.362;2023-09-18T04:26:35;4.53;;;3.00;;
14516;SDS011;7344;50.864;4.362;2023-09-18T04:29:02;3.53;;;2.92;;
14516;SDS011;7344;50.864;4.362;2023-09-18T04:31:28;4.65;;;2.70;;
14516;SDS011;7344;50.864;4.362;2023-09-18T04:33:54;3.10;;;2.80;;
14516;SDS011;7344;50.864;4.362;2023-09-18T04:36:20;3.45;;;2.30;;
14516;SDS011;7344;50.864;4.362;2023-09-18T04:38:45;2.83;;;2.45;;
14516;SDS011;7344;50.864;4.362;2023-09-18T04:41:11;2.65;;;2.45;;
14516;SDS011;7344;50.864;4.362;2023-09-18T04:43:37;2.90;;;2.40;;
14516;SDS011;7344;50.864;4.362;2023-09-18T04:46:06;2.33;;;2.13;;
14516;SDS011;7344;50.864;4.362;2023-09-18T04:48:32;2.38;;;1.98;;
14516;SDS011;7344;50.864;4.362;2023-09-18T04:50:58;3.55;;;2.00;;
14516;SDS011;7344;50.864;4.362;2023-09-18T04:53:24;3.28;;;1.77;;
14516;SDS011;7344;50.864;4.362;2023-09-18T04:55:51;4.25;;;2.33;;
14516;SDS011;7344;50.864;4.362;2023-09-18T04:58:17;4.55;;;1.90;;
14516;SDS011;7344;50.864;4.362;2023-09-18T05:00:43;7.82;;;2.00;;
14516;SDS011;7344;50.864;4.362;2023-09-18T05:03:09;4.32;;;1.90;;
14516;SDS011;7344;50.864;4.362;2023-09-18T05:05:36;1.90;;;1.80;;
14516;SDS011;7344;50.864;4.362;2023-09-18T05:08:02;4.50;;;2.00;;
14516;SDS011;7344;50.864;4.362;2023-09-18T05:10:29;4.97;;;2.17;;
14516;SDS011;7344;50.864;4.362;2023-09-18T05:12:55;2.58;;;2.17;;
14516;SDS011;7344;50.864;4.362;2023-09-18T05:15:24;6.15;;;2.10;;
14516;SDS011;7344;50.864;4.362;2023-09-18T05:17:56;7.00;;;2.10;;
14516;SDS011;7344;50.864;4.362;2023-09-18T05:20:26;2.30;;;2.00;;
14516;SDS011;7344;50.864;4.362;2023-09-18T05:22:54;5.07;;;2.15;;
14516;SDS011;7344;50.864;4.362;2023-09-18T05:25:23;2.63;;;2.20;;
14516;SDS011;7344;50.864;4.362;2023-09-18T05:27:51;3.95;;;2.65;;
14516;SDS011;7344;50.864;4.362;2023-09-18T05:30:24;4.20;;;2.10;;
14516;SDS011;7344;50.864;4.362;2023-09-18T05:32:59;3.45;;;2.13;;
14516;SDS011;7344;50.864;4.362;2023-09-18T05:35:33;4.80;;;2.13;;
14516;SDS011;7344;50.864;4.362;2023-09-18T05:38:00;6.15;;;2.35;;
14516;SDS011;7344;50.864;4.362;2023-09-18T05:40:25;4.30;;;2.30;;
14516;SDS011;7344;50.864;4.362;2023-09-18T05:42:55;4.28;;;2.17;;
14516;SDS011;7344;50.864;4.362;2023-09-18T05:45:21;4.82;;;2.38;;
14516;SDS011;7344;50.864;4.362;2023-09-18T05:47:47;16.00;;;3.10;;
14516;SDS011;7344;50.864;4.362;2023-09-18T05:50:13;5.88;;;2.63;;
14516;SDS011;7344;50.864;4.362;2023-09-18T05:52:41;3.33;;;2.65;;
14516;SDS011;7344;50.864;4.362;2023-09-18T05:55:07;4.65;;;2.40;;
14516;SDS011;7344;50.864;4.362;2023-09-18T05:57:33;5.05;;;2.42;;
14516;SDS011;7344;50.864;4.362;2023-09-18T05:59:59;5.57;;;2.72;;
14516;SDS011;7344;50.864;4.362;2023-09-18T06:02:25;6.00;;;2.72;;
14516;SDS011;7344;50.864;4.362;2023-09-18T06:04:57;7.50;;;3.03;;
14516;SDS011;7344;50.864;4.362;2023-09-18T06:07:25;3.75;;;2.35;;
14516;SDS011;7344;50.864;4.362;2023-09-18T06:09:55;6.35;;;3.40;;
14516;SDS011;7344;50.864;4.362;2023-09-18T06:12:21;5.85;;;3.17;;
14516;SDS011;7344;50.864;4.362;2023-09-18T06:14:47;5.97;;;2.88;;
14516;SDS011;7344;50.864;4.362;2023-09-18T06:17:13;5.05;;;2.17;;
14516;SDS011;7344;50.864;4.362;2023-09-18T06:19:40;2.67;;;2.47;;
14516;SDS011;7344;50.864;4.362;2023-09-18T06:22:06;4.63;;;2.97;;
14516;SDS011;7344;50.864;4.362;2023-09-18T06:24:32;4.20;;;3.10;;
14516;SDS011;7344;50.864;4.362;2023-09-18T06:26:58;3.53;;;3.20;;
14516;SDS011;7344;50.864;4.362;2023-09-18T06:29:24;4.80;;;3.00;;
14516;SDS011;7344;50.864;4.362;2023-09-18T06:31:50;3.92;;;2.95;;
14516;SDS011;7344;50.864;4.362;2023-09-18T06:34:16;4.15;;;2.95;;
14516;SDS011;7344;50.864;4.362;2023-09-18T06:36:41;5.43;;;2.95;;
14516;SDS011;7344;50.864;4.362;2023-09-18T06:39:07;6.47;;;2.95;;
14516;SDS011;7344;50.864;4.362;2023-09-18T06:41:33;5.57;;;2.83;;
14516;SDS011;7344;50.864;4.362;2023-09-18T06:43:58;6.05;;;3.03;;
14516;SDS011;7344;50.864;4.362;2023-09-18T06:46:28;5.53;;;2.80;;
14516;SDS011;7344;50.864;4.362;2023-09-18T06:48:55;5.65;;;2.85;;
14516;SDS011;7344;50.864;4.362;2023-09-18T06:51:21;7.15;;;3.13;;
14516;SDS011;7344;50.864;4.362;2023-09-18T06:53:48;5.35;;;3.53;;
14516;SDS011;7344;50.864;4.362;2023-09-18T06:56:13;8.35;;;3.35;;
14516;SDS011;7344;50.864;4.362;2023-09-18T06:58:39;5.25;;;3.15;;
14516;SDS011;7344;50.864;4.362;2023-09-18T07:01:04;4.15;;;3.58;;
14516;SDS011;7344;50.864;4.362;2023-09-18T07:03:34;7.85;;;3.33;;
14516;SDS011;7344;50.864;4.362;2023-09-18T07:06:01;6.75;;;3.28;;
14516;SDS011;7344;50.864;4.362;2023-09-18T07:08:27;5.65;;;3.17;;
14516;SDS011;7344;50.864;4.362;2023-09-18T07:10:53;4.68;;;3.10;;
14516;SDS011;7344;50.864;4.362;2023-09-18T07:13:19;4.00;;;3.60;;
14516;SDS011;7344;50.864;4.362;2023-09-18T07:15:45;6.85;;;3.10;;
14516;SDS011;7344;50.864;4.362;2023-09-18T07:18:10;4.50;;;3.45;;
14516;SDS011;7344;50.864;4.362;2023-09-18T07:20:39;5.72;;;3.35;;
14516;SDS011;7344;50.864;4.362;2023-09-18T07:23:05;5.40;;;3.60;;
14516;SDS011;7344;50.864;4.362;2023-09-18T07:25:31;5.63;;;3.10;;
14516;SDS011;7344;50.864;4.362;2023-09-18T07:27:56;7.28;;;3.15;;
14516;SDS011;7344;50.864;4.362;2023-09-18T07:30:22;7.05;;;3.10;;
14516;SDS011;7344;50.864;4.362;2023-09-18T07:32:51;5.00;;;3.13;;
14516;SDS011;7344;50.864;4.362;2023-09-18T07:35:22;3.65;;;3.05;;
14516;SDS011;7344;50.864;4.362;2023-09-18T07:37:48;8.95;;;3.33;;
14516;SDS011;7344;50.864;4.362;2023-09-18T07:40:13;2.97;;;2.58;;
14516;SDS011;7344;50.864;4.362;2023-09-18T07:42:40;3.38;;;2.47;;
14516;SDS011;7344;50.864;4.362;2023-09-18T07:45:08;7.07;;;3.22;;
14516;SDS011;7344;50.864;4.362;2023-09-18T07:47:34;4.28;;;2.30;;
14516;SDS011;7344;50.864;4.362;2023-09-18T07:50:00;11.70;;;2.97;;
14516;SDS011;7344;50.864;4.362;2023-09-18T07:52:26;9.40;;;3.05;;
14516;SDS011;7344;50.864;4.362;2023-09-18T07:54:52;6.45;;;2.67;;
14516;SDS011;7344;50.864;4.362;2023-09-18T07:57:17;6.95;;;2.90;;
14516;SDS011;7344;50.864;4.362;2023-09-18T07:59:44;7.90;;;2.60;;
14516;SDS011;7344;50.864;4.362;2023-09-18T08:02:11;3.60;;;2.40;;
14516;SDS011;7344;50.864;4.362;2023-09-18T08:04:37;11.27;;;2.53;;
14516;SDS011;7344;50.864;4.362;2023-09-18T08:07:03;5.65;;;2.45;;
14516;SDS011;7344;50.864;4.362;2023-09-18T08:09:32;2.90;;;2.47;;
14516;SDS011;7344;50.864;4.362;2023-09-18T08:12:01;7.80;;;2.45;;
14516;SDS011;7344;50.864;4.362;2023-09-18T08:14:27;8.27;;;2.97;;
14516;SDS011;7344;50.864;4.362;2023-09-18T08:16:59;6.38;;;3.20;;
14516;SDS011;7344;50.864;4.362;2023-09-18T08:19:25;6.43;;;3.10;;
14516;SDS011;7344;50.864;4.362;2023-09-18T08:21:54;7.90;;;3.15;;
14516;SDS011;7344;50.864;4.362;2023-09-18T08:24:21;3.92;;;3.20;;
14516;SDS011;7344;50.864;4.362;2023-09-18T08:26:47;6.25;;;3.60;;
14516;SDS011;7344;50.864;4.362;2023-09-18T08:29:13;5.55;;;4.00;;
14516;SDS011;7344;50.864;4.362;2023-09-18T08:31:40;6.43;;;4.20;;
14516;SDS011;7344;50.864;4.362;2023-09-18T08:34:05;10.30;;;4.13;;
14516;SDS011;7344;50.864;4.362;2023-09-18T08:36:31;9.50;;;4.97;;
14516;SDS011;7344;50.864;4.362;2023-09-18T08:38:57;8.68;;;5.05;;
14516;SDS011;7344;50.864;4.362;2023-09-18T08:41:23;6.72;;;4.78;;
14516;SDS011;7344;50.864;4.362;2023-09-18T08:43:52;9.63;;;4.80;;
14516;SDS011;7344;50.864;4.362;2023-09-18T08:46:25;4.97;;;4.40;;
14516;SDS011;7344;50.864;4.362;2023-09-18T08:48:51;5.15;;;4.65;;
14516;SDS011;7344;50.864;4.362;2023-09-18T08:51:19;8.70;;;4.90;;
14516;SDS011;7344;50.864;4.362;2023-09-18T08:53:46;6.88;;;4.63;;
14516;SDS011;7344;50.864;4.362;2023-09-18T08:56:12;9.02;;;4.63;;
14516;SDS011;7344;50.864;4.362;2023-09-18T08:58:39;5.05;;;3.78;;
14516;SDS011;7344;50.864;4.362;2023-09-18T09:01:08;7.82;;;4.50;;
14516;SDS011;7344;50.864;4.362;2023-09-18T09:03:38;4.63;;;4.22;;
14516;SDS011;7344;50.864;4.362;2023-09-18T09:06:05;5.03;;;4.00;;
14516;SDS011;7344;50.864;4.362;2023-09-18T09:08:32;6.72;;;4.30;;
14516;SDS011;7344;50.864;4.362;2023-09-18T09:10:58;4.32;;;3.65;;
14516;SDS011;7344;50.864;4.362;2023-09-18T09:13:24;4.45;;;3.88;;
14516;SDS011;7344;50.864;4.362;2023-09-18T09:15:56;9.48;;;3.53;;
14516;SDS011;7344;50.864;4.362;2023-09-18T09:18:23;7.45;;;3.92;;
14516;SDS011;7344;50.864;4.362;2023-09-18T09:23:44;6.70;;;3.90;;
14516;SDS011;7344;50.864;4.362;2023-09-18T09:26:16;7.70;;;3.80;;
14516;SDS011;7344;50.864;4.362;2023-09-18T09:28:44;5.47;;;3.75;;
14516;SDS011;7344;50.864;4.362;2023-09-18T09:31:10;7.53;;;3.53;;
14516;SDS011;7344;50.864;4.362;2023-09-18T09:33:37;7.60;;;3.70;;
14516;SDS011;7344;50.864;4.362;2023-09-18T09:36:06;11.35;;;3.67;;
14516;SDS011;7344;50.864;4.362;2023-09-18T09:38:32;7.95;;;4.00;;
14516;SDS011;7344;50.864;4.362;2023-09-18T09:40:59;4.60;;;4.15;;
14516;SDS011;7344;50.864;4.362;2023-09-18T09:43:26;8.55;;;4.50;;
14516;SDS011;7344;50.864;4.362;2023-09-18T09:46:02;9.07;;;4.40;;
14516;SDS011;7344;50.864;4.362;2023-09-18T09:48:28;5.82;;;4.00;;
14516;SDS011;7344;50.864;4.362;2023-09-18T09:50:58;4.88;;;4.30;;
14516;SDS011;7344;50.864;4.362;2023-09-18T09:56:12;5.63;;;4.25;;
14516;SDS011;7344;50.864;4.362;2023-09-18T09:58:37;8.40;;;4.35;;
14516;SDS011;7344;50.864;4.362;2023-09-18T10:01:06;9.32;;;4.70;;
14516;SDS011;7344;50.864;4.362;2023-09-18T10:03:36;9.10;;;4.25;;
14516;SDS011;7344;50.864;4.362;2023-09-18T10:06:04;6.68;;;4.10;;
14516;SDS011;7344;50.864;4.362;2023-09-18T10:08:31;6.15;;;3.95;;
14516;SDS011;7344;50.864;4.362;2023-09-18T10:11:05;4.65;;;3.92;;
14516;SDS011;7344;50.864;4.362;2023-09-18T10:16:11;4.80;;;4.22;;
14516;SDS011;7344;50.864;4.362;2023-09-18T10:21:47;5.00;;;4.50;;
14516;SDS011;7344;50.864;4.362;2023-09-18T10:24:33;6.93;;;4.10;;
14516;SDS011;7344;50.864;4.362;2023-09-18T10:27:04;10.38;;;4.07;;
14516;SDS011;7344;50.864;4.362;2023-09-18T10:29:32;5.25;;;3.63;;
14516;SDS011;7344;50.864;4.362;2023-09-18T10:31:59;5.47;;;3.90;;
14516;SDS011;7344;50.864;4.362;2023-09-18T10:34:28;7.65;;;4.20;;
14516;SDS011;7344;50.864;4.362;2023-09-18T10:36:56;5.35;;;4.00;;
14516;SDS011;7344;50.864;4.362;2023-09-18T10:39:25;6.28;;;4.22;;
14516;SDS011;7344;50.864;4.362;2023-09-18T10:41:54;8.40;;;4.32;;
14516;SDS011;7344;50.864;4.362;2023-09-18T10:44:27;8.73;;;3.90;;
14516;SDS011;7344;50.864;4.362;2023-09-18T10:46:53;5.38;;;4.38;;
14516;SDS011;7344;50.864;4.362;2023-09-18T10:49:20;9.30;;;4.18;;
14516;SDS011;7344;50.864;4.362;2023-09-18T10:51:47;6.82;;;4.15;;
14516;SDS011;7344;50.864;4.362;2023-09-18T10:54:16;8.57;;;4.03;;
14516;SDS011;7344;50.864;4.362;2023-09-18T10:56:48;4.80;;;3.97;;
14516;SDS011;7344;50.864;4.362;2023-09-18T10:59:15;6.80;;;4.18;;
14516;SDS011;7344;50.864;4.362;2023-09-18T11:01:41;7.60;;;4.03;;
14516;SDS011;7344;50.864;4.362;2023-09-18T11:04:07;4.68;;;4.28;;
14516;SDS011;7344;50.864;4.362;2023-09-18T11:09:45;5.68;;;3.28;;
14516;SDS011;7344;50.864;4.362;2023-09-18T11:12:12;4.78;;;3.25;;
14516;SDS011;7344;50.864;4.362;2023-09-18T11:17:27;7.68;;;3.20;;
14516;SDS011;7344;50.864;4.362;2023-09-18T11:20:04;5.15;;;3.17;;
14516;SDS011;7344;50.864;4.362;2023-09-18T11:22:34;6.50;;;3.05;;
14516;SDS011;7344;50.864;4.362;2023-09-18T11:28:02;6.43;;;3.47;;
14516;SDS011;7344;50.864;4.362;2023-09-18T11:30:29;4.22;;;2.67;;
14516;SDS011;7344;50.864;4.362;2023-09-18T11:32:55;5.50;;;3.60;;
14516;SDS011;7344;50.864;4.362;2023-09-18T11:35:21;7.57;;;3.00;;
14516;SDS011;7344;50.864;4.362;2023-09-18T11:37:47;12.80;;;3.75;;
14516;SDS011;7344;50.864;4.362;2023-09-18T11:40:35;7.20;;;3.00;;
14516;SDS011;7344;50.864;4.362;2023-09-18T11:43:18;4.05;;;3.10;;
14516;SDS011;7344;50.864;4.362;2023-09-18T11:45:58;3.95;;;2.83;;
14516;SDS011;7344;50.864;4.362;2023-09-18T11:48:25;5.70;;;3.10;;
14516;SDS011;7344;50.864;4.362;2023-09-18T11:50:55;3.38;;;2.90;;
14516;SDS011;7344;50.864;4.362;2023-09-18T11:53:23;6.20;;;3.40;;
14516;SDS011;7344;50.864;4.362;2023-09-18T11:55:51;5.05;;;3.17;;
14516;SDS011;7344;50.864;4.362;2023-09-18T11:58:17;6.03;;;3.20;;
14516;SDS011;7344;50.864;4.362;2023-09-18T12:00:48;4.05;;;2.70;;
14516;SDS011;7344;50.864;4.362;2023-09-18T12:03:18;4.03;;;2.72;;
14516;SDS011;7344;50.864;4.362;2023-09-18T12:05:52;4.57;;;2.80;;
14516;SDS011;7344;50.864;4.362;2023-09-18T12:08:19;4.18;;;2.88;;
14516;SDS011;7344;50.864;4.362;2023-09-18T12:10:47;3.22;;;2.80;;
14516;SDS011;7344;50.864;4.362;2023-09-18T12:13:14;6.65;;;3.10;;
14516;SDS011;7344;50.864;4.362;2023-09-18T12:15:40;2.75;;;2.42;;
14516;SDS011;7344;50.864;4.362;2023-09-18T12:18:07;2.88;;;2.67;;
14516;SDS011;7344;50.864;4.362;2023-09-18T12:20:34;4.53;;;3.00;;
14516;SDS011;7344;50.864;4.362;2023-09-18T12:23:01;4.43;;;2.92;;
14516;SDS011;7344;50.864;4.362;2023-09-18T12:25:27;3.55;;;2.92;;
14516;SDS011;7344;50.864;4.362;2023-09-18T12:27:53;4.30;;;2.80;;
14516;SDS011;7344;50.864;4.362;2023-09-18T12:30:20;2.97;;;2.78;;
14516;SDS011;7344;50.864;4.362;2023-09-18T12:32:48;6.22;;;3.03;;
14516;SDS011;7344;50.864;4.362;2023-09-18T12:35:14;4.90;;;3.22;;
14516;SDS011;7344;50.864;4.362;2023-09-18T12:37:43;5.00;;;3.00;;
14516;SDS011;7344;50.864;4.362;2023-09-18T12:40:42;3.45;;;2.70;;
14516;SDS011;7344;50.864;4.362;2023-09-18T12:43:00;5.10;;;2.83;;
14516;SDS011;7344;50.864;4.362;2023-09-18T12:45:28;5.95;;;3.05;;
14516;SDS011;7344;50.864;4.362;2023-09-18T12:47:55;6.93;;;2.72;;
14516;SDS011;7344;50.864;4.362;2023-09-18T12:50:22;4.85;;;2.60;;
14516;SDS011;7344;50.864;4.362;2023-09-18T12:52:47;3.90;;;2.60;;
14516;SDS011;7344;50.864;4.362;2023-09-18T12:55:26;3.40;;;2.50;;
14516;SDS011;7344;50.864;4.362;2023-09-18T12:57:55;2.47;;;2.28;;
14516;SDS011;7344;50.864;4.362;2023-09-18T13:00:21;4.80;;;2.90;;
14516;SDS011;7344;50.864;4.362;2023-09-18T13:02:48;6.22;;;2.60;;
14516;SDS011;7344;50.864;4.362;2023-09-18T13:05:20;3.78;;;2.38;;
14516;SDS011;7344;50.864;4.362;2023-09-18T13:07:50;3.85;;;2.67;;
14516;SDS011;7344;50.864;4.362;2023-09-18T13:10:16;6.63;;;2.70;;
14516;SDS011;7344;50.864;4.362;2023-09-18T13:17:54;4.38;;;2.35;;
14516;SDS011;7344;50.864;4.362;2023-09-18T13:20:25;7.68;;;2.42;;
14516;SDS011;7344;50.864;4.362;2023-09-18T13:22:57;6.28;;;2.67;;
14516;SDS011;7344;50.864;4.362;2023-09-18T13:25:27;7.20;;;2.30;;
14516;SDS011;7344;50.864;4.362;2023-09-18T13:27:59;8.25;;;2.65;;
14516;SDS011;7344;50.864;4.362;2023-09-18T13:30:26;4.03;;;2.53;;
14516;SDS011;7344;50.864;4.362;2023-09-18T13:33:00;5.97;;;2.53;;
14516;SDS011;7344;50.864;4.362;2023-09-18T13:35:31;3.33;;;2.30;;
14516;SDS011;7344;50.864;4.362;2023-09-18T13:37:57;3.33;;;2.45;;
14516;SDS011;7344;50.864;4.362;2023-09-18T13:40:23;6.07;;;2.45;;
14516;SDS011;7344;50.864;4.362;2023-09-18T13:42:49;5.25;;;2.42;;
14516;SDS011;7344;50.864;4.362;2023-09-18T13:45:14;5.57;;;2.30;;
14516;SDS011;7344;50.864;4.362;2023-09-18T13:47:43;3.78;;;2.53;;
14516;SDS011;7344;50.864;4.362;2023-09-18T13:50:09;4.30;;;2.63;;
14516;SDS011;7344;50.864;4.362;2023-09-18T13:52:35;4.20;;;2.50;;
14516;SDS011;7344;50.864;4.362;2023-09-18T13:55:05;6.65;;;2.70;;
14516;SDS011;7344;50.864;4.362;2023-09-18T13:57:34;8.55;;;2.65;;
14516;SDS011;7344;50.864;4.362;2023-09-18T14:00:00;8.77;;;2.70;;
14516;SDS011;7344;50.864;4.362;2023-09-18T14:02:30;10.25;;;2.67;;
14516;SDS011;7344;50.864;4.362;2023-09-18T14:04:56;11.10;;;2.88;;
14516;SDS011;7344;50.864;4.362;2023-09-18T14:07:21;6.40;;;2.38;;
14516;SDS011;7344;50.864;4.362;2023-09-18T14:09:48;10.63;;;2.85;;
14516;SDS011;7344;50.864;4.362;2023-09-18T14:12:14;3.55;;;2.22;;
14516;SDS011;7344;50.864;4.362;2023-09-18T14:14:43;4.40;;;2.47;;
14516;SDS011;7344;50.864;4.362;2023-09-18T14:17:12;6.70;;;2.65;;
14516;SDS011;7344;50.864;4.362;2023-09-18T14:19:37;4.05;;;2.42;;
14516;SDS011;7344;50.864;4.362;2023-09-18T14:22:04;2.88;;;2.30;;
14516;SDS011;7344;50.864;4.362;2023-09-18T14:24:31;4.85;;;2.58;;
14516;SDS011;7344;50.864;4.362;2023-09-18T14:26:59;4.75;;;2.78;;
14516;SDS011;7344;50.864;4.362;2023-09-18T14:29:26;5.25;;;2.90;;
14516;SDS011;7344;50.864;4.362;2023-09-18T14:31:51;3.15;;;2.67;;
14516;SDS011;7344;50.864;4.362;2023-09-18T14:34:17;5.07;;;2.38;;
14516;SDS011;7344;50.864;4.362;2023-09-18T14:36:43;4.30;;;2.80;;
14516;SDS011;7344;50.864;4.362;2023-09-18T14:39:09;8.70;;;3.78;;
14516;SDS011;7344;50.864;4.362;2023-09-18T14:41:36;5.03;;;2.60;;
14516;SDS011;7344;50.864;4.362;2023-09-18T14:44:06;10.32;;;2.95;;
14516;SDS011;7344;50.864;4.362;2023-09-18T14:46:34;7.47;;;2.88;;
14516;SDS011;7344;50.864;4.362;2023-09-18T14:49:00;5.85;;;3.17;;
14516;SDS011;7344;50.864;4.362;2023-09-18T14:51:29;7.88;;;2.90;;
14516;SDS011;7344;50.864;4.362;2023-09-18T14:53:55;3.78;;;2.83;;
14516;SDS011;7344;50.864;4.362;2023-09-18T14:56:21;4.15;;;3.00;;
14516;SDS011;7344;50.864;4.362;2023-09-18T14:58:47;10.80;;;3.15;;
14516;SDS011;7344;50.864;4.362;2023-09-18T15:01:12;3.22;;;2.75;;
14516;SDS011;7344;50.864;4.362;2023-09-18T15:03:39;2.95;;;2.72;;
14516;SDS011;7344;50.864;4.362;2023-09-18T15:06:05;3.53;;;2.72;;
14516;SDS011;7344;50.864;4.362;2023-09-18T15:08:32;3.20;;;2.67;;
14516;SDS011;7344;50.864;4.362;2023-09-18T15:10:58;5.53;;;3.13;;
14516;SDS011;7344;50.864;4.362;2023-09-18T15:13:24;3.85;;;2.92;;
14516;SDS011;7344;50.864;4.362;2023-09-18T15:15:50;5.72;;;2.33;;
14516;SDS011;7344;50.864;4.362;2023-09-18T15:18:16;3.78;;;2.70;;
14516;SDS011;7344;50.864;4.362;2023-09-18T15:20:42;4.45;;;2.90;;
14516;SDS011;7344;50.864;4.362;2023-09-18T15:23:07;4.13;;;3.25;;
14516;SDS011;7344;50.864;4.362;2023-09-18T15:25:35;3.80;;;2.80;;
14516;SDS011;7344;50.864;4.362;2023-09-18T15:28:06;5.18;;;3.00;;